Time;durP1;ratioP1;P1;durP2;ratioP2;P2;SDS_P1;SDS_P2;PMS_P1;PMS_P2;Temp;Humidity;BMP_temperature;BMP_pressure;BME280_temperature;BME280_humidity;BME280_pressure;Samples;Min_cycle;Max_cycle;Signal;HPM_P1;HPM_P2
2022/09/25 00:00:41;;;;;;;;;;;16.30;67.20;;;;;;5022623;28;19913;-83
2022/09/25 00:03:07;;;;;;;;;;;16.30;67.30;;;;;;5043980;28;19916;-84
2022/09/25 00:05:37;;;;;;;;;;;16.20;67.20;;;;;;5034570;28;19962;-84
2022/09/25 00:08:03;;;;;;;;;;;16.20;67.20;;;;;;5036781;28;20365;-84
2022/09/25 00:10:29;;;;;;;;;;;16.20;67.20;;;;;;5041370;28;19940;-85
2022/09/25 00:12:54;;;;;;;;;;;16.20;67.20;;;;;;5022657;28;19921;-84
2022/09/25 00:15:20;;;;;;;;;;;16.20;67.30;;;;;;5038201;28;19914;-84
2022/09/25 00:17:46;;;;;;;;;;;16.20;67.30;;;;;;5025959;28;20300;-84
2022/09/25 00:20:13;;;;;;;;;;;16.10;67.20;;;;;;5050354;28;20292;-84
2022/09/25 00:22:38;;;;;;;;;;;16.10;67.20;;;;;;5037265;28;19920;-85
2022/09/25 00:25:04;;;;;;;;;;;16.10;67.30;;;;;;5034013;28;20016;-83
2022/09/25 00:27:31;;;;;;;;;;;16.10;67.30;;;;;;5038102;28;19935;-85
2022/09/25 00:29:58;;;;;;;;;;;16.10;67.30;;;;;;5035646;28;19928;-83
2022/09/25 00:32:24;;;;;;;;;;;16.10;67.30;;;;;;5022537;28;20008;-84
2022/09/25 00:34:49;;;;;;;;;;;16.10;67.30;;;;;;5036070;28;20342;-85
2022/09/25 00:37:15;;;;;;;;;;;16.10;67.30;;;;;;5038576;28;20470;-83
2022/09/25 00:39:41;;;;;;;;;;;16.10;67.30;;;;;;5026609;28;20012;-84
2022/09/25 00:42:06;;;;;;;;;;;16.10;67.30;;;;;;5037895;28;19947;-83
2022/09/25 00:44:45;;;;;;;;;;;16.00;67.30;;;;;;5034738;28;19918;-84
2022/09/25 00:47:14;;;;;;;;;;;16.00;67.30;;;;;;5056449;28;19920;-84
2022/09/25 00:49:40;;;;;;;;;;;16.00;67.30;;;;;;5034863;28;19921;-84
2022/09/25 00:52:07;;;;;;;;;;;16.00;67.30;;;;;;5031000;28;19924;-84
2022/09/25 00:54:39;;;;;;;;;;;16.00;67.30;;;;;;5037493;28;19917;-84
2022/09/25 00:57:06;;;;;;;;;;;16.00;67.30;;;;;;5037775;28;20373;-84
2022/09/25 00:59:37;;;;;;;;;;;15.90;67.30;;;;;;5023169;28;20381;-84
2022/09/25 01:02:03;;;;;;;;;;;15.90;67.30;;;;;;5034106;28;19917;-84
2022/09/25 01:04:31;;;;;;;;;;;15.90;67.30;;;;;;5031609;28;19972;-83
2022/09/25 01:06:57;;;;;;;;;;;15.90;67.30;;;;;;5038563;28;19913;-84
2022/09/25 01:09:23;;;;;;;;;;;15.90;67.30;;;;;;5037240;28;19913;-85
2022/09/25 01:11:49;;;;;;;;;;;15.90;67.30;;;;;;5033776;28;19918;-84
2022/09/25 01:14:16;;;;;;;;;;;15.90;67.30;;;;;;5024911;28;19918;-84
2022/09/25 01:16:48;;;;;;;;;;;15.90;67.30;;;;;;5036353;28;20036;-84
2022/09/25 01:19:32;;;;;;;;;;;15.80;67.30;;;;;;5030535;28;20328;-86
2022/09/25 01:22:25;;;;;;;;;;;15.80;67.30;;;;;;5054141;28;19927;-85
2022/09/25 01:24:53;;;;;;;;;;;15.80;67.30;;;;;;5041677;28;19921;-84
2022/09/25 01:27:28;;;;;;;;;;;15.80;67.30;;;;;;5057135;28;19909;-83
2022/09/25 01:30:11;;;;;;;;;;;15.80;67.30;;;;;;5059188;28;19913;-83
2022/09/25 01:32:45;;;;;;;;;;;15.70;67.30;;;;;;5061697;28;19912;-84
2022/09/25 01:35:38;;;;;;;;;;;15.70;67.30;;;;;;5068699;28;19916;-83
2022/09/25 01:38:22;;;;;;;;;;;15.70;67.40;;;;;;5059698;28;19951;-83
2022/09/25 01:40:54;;;;;;;;;;;15.70;67.30;;;;;;5062707;28;19912;-83
2022/09/25 01:43:33;;;;;;;;;;;15.70;67.40;;;;;;5055260;28;19916;-84
2022/09/25 01:46:00;;;;;;;;;;;15.60;67.30;;;;;;5055485;28;20015;-84
2022/09/25 01:48:27;;;;;;;;;;;15.60;67.30;;;;;;5056397;28;20254;-83
2022/09/25 01:51:01;;;;;;;;;;;15.60;67.30;;;;;;5058430;28;19920;-84
2022/09/25 01:53:31;;;;;;;;;;;15.60;67.30;;;;;;5045936;28;19913;-83
2022/09/25 01:56:00;;;;;;;;;;;15.60;67.40;;;;;;5051797;28;19912;-84
2022/09/25 01:58:45;;;;;;;;;;;15.50;67.90;;;;;;5046248;28;19912;-83
2022/09/25 02:01:14;;;;;;;;;;;15.50;67.30;;;;;;5053968;28;20054;-84
2022/09/25 02:03:49;;;;;;;;;;;15.50;67.30;;;;;;5054419;28;19962;-83
2022/09/25 02:06:18;;;;;;;;;;;15.50;67.30;;;;;;5050028;28;19913;-83
2022/09/25 02:08:51;;;;;;;;;;;15.50;67.40;;;;;;5053421;28;19913;-83
2022/09/25 02:11:16;;;;;;;;;;;15.40;67.30;;;;;;5054124;28;19913;-85
2022/09/25 02:13:46;;;;;;;;;;;15.40;67.30;;;;;;5036418;28;19927;-84
2022/09/25 02:16:15;;;;;;;;;;;15.40;67.30;;;;;;5051111;28;19917;-83
2022/09/25 02:21:37;;;;;;;;;;;15.40;67.30;;;;;;5062312;28;19927;-83
2022/09/25 02:24:05;;;;;;;;;;;15.30;67.30;;;;;;5058968;28;20367;-83
2022/09/25 02:26:33;;;;;;;;;;;15.30;67.30;;;;;;5075883;28;19912;-84
2022/09/25 02:28:59;;;;;;;;;;;15.30;67.30;;;;;;5062934;28;19912;-84
2022/09/25 02:31:29;;;;;;;;;;;15.20;67.30;;;;;;5065300;28;19912;-83
2022/09/25 02:33:56;;;;;;;;;;;15.20;67.30;;;;;;5066543;28;19986;-83
2022/09/25 02:36:25;;;;;;;;;;;15.20;67.30;;;;;;5062584;28;19928;-84
2022/09/25 02:38:51;;;;;;;;;;;15.20;67.30;;;;;;5045101;28;21481;-83
2022/09/25 02:41:30;;;;;;;;;;;15.20;67.30;;;;;;5045104;28;20276;-85
2022/09/25 02:44:00;;;;;;;;;;;15.20;67.30;;;;;;5069044;28;20257;-84
2022/09/25 02:46:29;;;;;;;;;;;15.10;67.30;;;;;;5059851;28;19916;-84
2022/09/25 02:49:09;;;;;;;;;;;15.10;67.30;;;;;;5047984;28;19909;-83
2022/09/25 02:51:50;;;;;;;;;;;15.10;67.30;;;;;;5082964;28;19913;-83
2022/09/25 02:54:22;;;;;;;;;;;15.10;67.30;;;;;;5060970;28;19926;-83
2022/09/25 02:56:52;;;;;;;;;;;15.10;67.30;;;;;;5076153;28;19913;-83
2022/09/25 02:59:20;;;;;;;;;;;15.10;67.30;;;;;;5073689;28;19944;-83
2022/09/25 03:01:46;;;;;;;;;;;15.00;67.30;;;;;;5058020;28;20342;-83
2022/09/25 03:04:14;;;;;;;;;;;15.00;68.00;;;;;;5043786;28;19925;-84
2022/09/25 03:06:40;;;;;;;;;;;15.00;67.30;;;;;;5062048;28;19919;-82
2022/09/25 03:09:07;;;;;;;;;;;14.90;67.30;;;;;;5064669;28;19912;-84
2022/09/25 03:11:38;;;;;;;;;;;14.90;67.30;;;;;;5076822;28;20023;-84
2022/09/25 03:14:04;;;;;;;;;;;14.90;67.30;;;;;;5078991;28;19919;-84
2022/09/25 03:16:49;;;;;;;;;;;14.90;67.30;;;;;;5060491;28;20339;-86
2022/09/25 03:19:15;;;;;;;;;;;14.90;67.30;;;;;;5076909;28;19920;-82
2022/09/25 03:21:40;;;;;;;;;;;14.80;67.30;;;;;;5043818;28;20319;-83
2022/09/25 03:24:06;;;;;;;;;;;14.80;67.30;;;;;;5058922;28;19924;-83
2022/09/25 03:26:32;;;;;;;;;;;14.80;67.30;;;;;;5058256;28;19955;-86
2022/09/25 03:29:01;;;;;;;;;;;14.80;67.30;;;;;;5066683;28;20261;-83
2022/09/25 03:31:27;;;;;;;;;;;14.80;67.30;;;;;;5061517;28;19916;-83
2022/09/25 03:33:53;;;;;;;;;;;14.70;67.30;;;;;;5061824;28;19923;-84
2022/09/25 03:36:20;;;;;;;;;;;14.70;67.30;;;;;;5068623;28;19916;-85
2022/09/25 03:38:47;;;;;;;;;;;14.70;67.30;;;;;;5066961;28;19908;-83
2022/09/25 03:41:14;;;;;;;;;;;14.70;67.30;;;;;;5065488;28;19921;-84
2022/09/25 03:43:41;;;;;;;;;;;14.70;67.30;;;;;;5055327;28;19917;-83
2022/09/25 03:46:08;;;;;;;;;;;14.60;67.60;;;;;;5067466;28;19919;-85
2022/09/25 03:48:33;;;;;;;;;;;14.70;67.30;;;;;;5058825;28;19920;-84
2022/09/25 03:51:00;;;;;;;;;;;14.60;67.30;;;;;;5059307;28;19913;-83
2022/09/25 03:53:26;;;;;;;;;;;14.60;67.30;;;;;;5045097;28;19913;-84
2022/09/25 03:55:52;;;;;;;;;;;14.50;67.30;;;;;;5055181;28;19924;-84
2022/09/25 03:58:18;;;;;;;;;;;14.50;67.30;;;;;;5057066;28;19959;-83
2022/09/25 04:00:44;;;;;;;;;;;14.50;67.30;;;;;;5058755;28;20356;-83
2022/09/25 04:03:11;;;;;;;;;;;14.50;67.90;;;;;;5053977;28;19925;-84
2022/09/25 04:05:36;;;;;;;;;;;14.50;67.30;;;;;;5052556;28;20011;-84
2022/09/25 04:08:02;;;;;;;;;;;14.50;67.30;;;;;;5057189;28;20011;-84
2022/09/25 04:10:28;;;;;;;;;;;14.50;67.30;;;;;;5040623;28;19920;-84
2022/09/25 04:12:54;;;;;;;;;;;14.40;67.30;;;;;;5020339;28;19971;-83
2022/09/25 04:15:23;;;;;;;;;;;14.40;67.30;;;;;;5054794;28;19920;-83
2022/09/25 04:17:49;;;;;;;;;;;14.40;67.30;;;;;;5056501;28;20373;-83
2022/09/25 04:20:15;;;;;;;;;;;14.40;67.30;;;;;;5057031;28;20341;-83
2022/09/25 04:22:41;;;;;;;;;;;14.40;67.30;;;;;;5037738;28;19921;-84
2022/09/25 04:25:08;;;;;;;;;;;14.30;67.30;;;;;;5034735;28;20361;-83
2022/09/25 04:27:33;;;;;;;;;;;14.30;67.30;;;;;;5041665;28;19917;-85
2022/09/25 04:30:00;;;;;;;;;;;14.30;67.30;;;;;;5040387;28;19920;-83
2022/09/25 04:35:27;;;;;;;;;;;14.20;67.20;;;;;;4971990;28;20022;-83
2022/09/25 04:37:53;;;;;;;;;;;14.20;67.30;;;;;;5019609;28;19909;-85
2022/09/25 04:40:19;;;;;;;;;;;14.20;67.30;;;;;;5039192;28;19971;-84
2022/09/25 04:42:45;;;;;;;;;;;14.20;67.30;;;;;;5042182;28;20572;-84
2022/09/25 04:45:10;;;;;;;;;;;14.20;67.30;;;;;;5041034;28;19917;-83
2022/09/25 04:47:36;;;;;;;;;;;14.10;67.20;;;;;;5018568;28;19917;-84
2022/09/25 04:50:01;;;;;;;;;;;14.10;67.20;;;;;;5039824;28;19975;-83
2022/09/25 04:52:27;;;;;;;;;;;14.10;67.30;;;;;;5030148;28;20035;-84
2022/09/25 04:54:53;;;;;;;;;;;14.10;67.30;;;;;;5039694;28;20019;-84
2022/09/25 04:57:19;;;;;;;;;;;14.10;67.30;;;;;;5044107;28;20419;-85
2022/09/25 04:59:45;;;;;;;;;;;14.00;67.20;;;;;;5034548;28;19921;-84
2022/09/25 05:02:11;;;;;;;;;;;14.00;67.20;;;;;;5039281;28;19921;-83
2022/09/25 05:04:36;;;;;;;;;;;14.00;67.20;;;;;;5036673;28;19916;-84
2022/09/25 05:07:02;;;;;;;;;;;14.00;67.30;;;;;;5033253;28;19920;-83
2022/09/25 05:09:28;;;;;;;;;;;14.00;67.30;;;;;;5034093;28;20425;-83
2022/09/25 05:11:54;;;;;;;;;;;13.90;67.20;;;;;;5037980;28;19913;-83
2022/09/25 05:14:19;;;;;;;;;;;13.90;67.20;;;;;;5041291;28;19924;-83
2022/09/25 05:16:46;;;;;;;;;;;13.90;67.20;;;;;;5023577;28;19921;-83
2022/09/25 05:19:11;;;;;;;;;;;13.90;67.30;;;;;;5039112;28;20066;-84
2022/09/25 05:21:37;;;;;;;;;;;13.90;67.30;;;;;;5015950;28;20027;-85
2022/09/25 05:24:03;;;;;;;;;;;13.80;67.20;;;;;;5008171;28;20640;-83
2022/09/25 05:26:29;;;;;;;;;;;13.90;67.30;;;;;;5029195;28;19939;-84
2022/09/25 05:28:55;;;;;;;;;;;13.80;67.20;;;;;;5018114;28;19917;-83
2022/09/25 05:31:20;;;;;;;;;;;13.80;67.30;;;;;;5033958;28;19935;-83
2022/09/25 05:33:47;;;;;;;;;;;13.80;67.30;;;;;;5036273;28;20305;-83
2022/09/25 05:36:12;;;;;;;;;;;13.80;67.30;;;;;;5024642;28;19921;-83
2022/09/25 05:38:39;;;;;;;;;;;13.80;67.30;;;;;;5038300;28;19947;-84
2022/09/25 05:41:08;;;;;;;;;;;13.80;67.30;;;;;;5031861;28;19921;-84
2022/09/25 05:43:38;;;;;;;;;;;13.70;67.30;;;;;;5033629;28;19925;-83
2022/09/25 05:46:05;;;;;;;;;;;13.80;67.30;;;;;;5033072;28;20374;-83
2022/09/25 05:48:30;;;;;;;;;;;13.70;67.30;;;;;;5031934;28;19924;-83
2022/09/25 05:50:57;;;;;;;;;;;13.70;67.30;;;;;;5030931;28;19913;-84
2022/09/25 05:53:23;;;;;;;;;;;13.70;67.30;;;;;;5017031;28;19964;-87
2022/09/25 05:55:49;;;;;;;;;;;13.60;67.30;;;;;;5036109;28;19952;-85
2022/09/25 05:58:15;;;;;;;;;;;13.60;67.30;;;;;;5037620;28;20413;-85
2022/09/25 06:00:41;;;;;;;;;;;13.60;67.30;;;;;;5036644;28;20004;-85
2022/09/25 06:03:07;;;;;;;;;;;13.60;67.30;;;;;;5015897;28;19921;-84
2022/09/25 06:05:32;;;;;;;;;;;13.60;67.30;;;;;;5032699;28;20463;-84
2022/09/25 06:07:58;;;;;;;;;;;13.60;67.40;;;;;;5034720;28;19944;-87
2022/09/25 06:10:25;;;;;;;;;;;13.60;67.40;;;;;;5033139;28;19966;-85
2022/09/25 06:12:53;;;;;;;;;;;13.60;67.40;;;;;;5035312;28;19913;-83
2022/09/25 06:15:19;;;;;;;;;;;13.60;67.40;;;;;;5030966;28;19947;-85
2022/09/25 06:17:45;;;;;;;;;;;13.50;67.40;;;;;;5020364;28;20321;-82
2022/09/25 06:20:11;;;;;;;;;;;13.50;67.40;;;;;;5021218;28;19920;-84
2022/09/25 06:22:37;;;;;;;;;;;13.50;67.40;;;;;;5045075;28;19931;-84
2022/09/25 06:25:03;;;;;;;;;;;13.50;67.40;;;;;;5051954;28;19921;-86
2022/09/25 06:27:29;;;;;;;;;;;13.50;67.40;;;;;;5055932;28;19947;-85
2022/09/25 06:29:55;;;;;;;;;;;13.50;67.50;;;;;;5058506;28;19913;-84
2022/09/25 06:32:22;;;;;;;;;;;13.50;67.50;;;;;;5060467;28;19938;-84
2022/09/25 06:34:48;;;;;;;;;;;13.50;67.50;;;;;;5042465;28;20432;-85
2022/09/25 06:37:13;;;;;;;;;;;13.40;67.40;;;;;;5058285;28;19960;-85
2022/09/25 06:39:39;;;;;;;;;;;13.40;67.40;;;;;;5058438;28;19919;-85
2022/09/25 06:42:04;;;;;;;;;;;13.50;67.50;;;;;;5062298;28;19951;-86
2022/09/25 06:44:30;;;;;;;;;;;13.50;67.50;;;;;;5038207;28;19917;-84
2022/09/25 06:46:56;;;;;;;;;;;13.40;67.50;;;;;;5042800;28;19955;-85
2022/09/25 06:49:22;;;;;;;;;;;13.40;67.50;;;;;;5055150;28;19916;-85
2022/09/25 06:51:49;;;;;;;;;;;13.40;67.50;;;;;;5057552;28;20262;-86
2022/09/25 06:54:15;;;;;;;;;;;13.40;67.50;;;;;;5044109;28;19917;-83
2022/09/25 06:56:41;;;;;;;;;;;13.40;67.50;;;;;;5055263;28;19923;-85
2022/09/25 06:59:08;;;;;;;;;;;13.40;67.50;;;;;;5060253;28;19915;-86
2022/09/25 07:01:34;;;;;;;;;;;13.40;67.50;;;;;;5056175;28;19916;-87
2022/09/25 07:04:00;;;;;;;;;;;13.40;67.50;;;;;;5043999;28;19924;-86
2022/09/25 07:06:27;;;;;;;;;;;13.40;67.60;;;;;;5054425;28;20357;-85
2022/09/25 07:08:55;;;;;;;;;;;13.40;67.60;;;;;;5027842;28;20353;-84
2022/09/25 07:11:25;;;;;;;;;;;13.40;67.60;;;;;;5052211;28;19935;-85
2022/09/25 07:13:51;;;;;;;;;;;13.40;67.60;;;;;;5071106;28;19917;-88
2022/09/25 07:16:17;;;;;;;;;;;13.40;67.60;;;;;;5052561;28;19912;-89
2022/09/25 07:18:43;;;;;;;;;;;13.50;67.70;;;;;;5061983;28;20432;-90
2022/09/25 07:21:11;;;;;;;;;;;13.40;67.60;;;;;;5055735;28;20415;-88
2022/09/25 07:23:37;;;;;;;;;;;13.40;67.60;;;;;;5050879;28;20443;-89
2022/09/25 07:26:04;;;;;;;;;;;13.40;68.30;;;;;;5042517;28;19921;-91
2022/09/25 07:28:30;;;;;;;;;;;13.40;67.60;;;;;;5035530;28;20430;-88
2022/09/25 07:30:56;;;;;;;;;;;13.40;67.60;;;;;;5072986;28;20018;-87
2022/09/25 07:33:23;;;;;;;;;;;13.40;67.60;;;;;;5043220;28;19974;-88
2022/09/25 07:35:52;;;;;;;;;;;13.40;67.70;;;;;;5076623;28;19913;-88
2022/09/25 07:38:18;;;;;;;;;;;13.40;67.70;;;;;;5057611;28;20162;-90
2022/09/25 07:40:44;;;;;;;;;;;13.50;67.70;;;;;;5053996;28;19944;-88
2022/09/25 07:43:10;;;;;;;;;;;13.40;67.60;;;;;;5056734;28;19999;-88
2022/09/25 07:45:36;;;;;;;;;;;13.40;67.60;;;;;;5059149;28;19952;-88
2022/09/25 07:48:02;;;;;;;;;;;13.50;67.70;;;;;;5059009;28;19999;-87
2022/09/25 07:50:28;;;;;;;;;;;13.50;67.70;;;;;;5058728;28;19913;-89
2022/09/25 07:52:54;;;;;;;;;;;13.50;67.70;;;;;;5050739;28;19920;-89
2022/09/25 07:55:20;;;;;;;;;;;13.50;67.70;;;;;;5058283;28;19920;-89
2022/09/25 07:57:46;;;;;;;;;;;13.50;67.70;;;;;;5056588;28;19917;-83
2022/09/25 08:00:11;;;;;;;;;;;13.50;67.80;;;;;;5078435;28;20401;-86
2022/09/25 08:02:41;;;;;;;;;;;13.50;67.80;;;;;;5050536;28;20426;-87
2022/09/25 08:05:07;;;;;;;;;;;13.50;67.80;;;;;;5056673;28;19921;-86
2022/09/25 08:07:33;;;;;;;;;;;13.50;67.80;;;;;;5058360;28;19908;-85
2022/09/25 08:09:59;;;;;;;;;;;13.50;67.80;;;;;;5040360;28;20400;-85
2022/09/25 08:12:24;;;;;;;;;;;13.50;67.80;;;;;;5058050;28;19921;-86
2022/09/25 08:14:51;;;;;;;;;;;13.60;67.80;;;;;;5041159;28;19920;-85
2022/09/25 08:17:17;;;;;;;;;;;13.60;67.80;;;;;;5054954;28;19913;-86
2022/09/25 08:19:43;;;;;;;;;;;13.60;67.80;;;;;;5056678;28;19974;-87
2022/09/25 08:22:09;;;;;;;;;;;13.60;67.90;;;;;;5058506;28;20424;-89
2022/09/25 08:24:35;;;;;;;;;;;13.60;67.90;;;;;;5060132;28;20360;-86
2022/09/25 08:27:00;;;;;;;;;;;13.60;67.80;;;;;;5054202;28;19942;-84
2022/09/25 08:29:26;;;;;;;;;;;13.60;68.00;;;;;;5072093;28;19991;-86
2022/09/25 08:31:52;;;;;;;;;;;13.70;68.20;;;;;;5056421;28;20011;-84
2022/09/25 08:34:18;;;;;;;;;;;13.70;68.20;;;;;;5054889;28;20105;-86
2022/09/25 08:36:43;;;;;;;;;;;13.70;68.20;;;;;;5069662;28;20480;-88
2022/09/25 08:39:09;;;;;;;;;;;13.70;68.10;;;;;;5038584;28;20312;-87
2022/09/25 08:41:46;;;;;;;;;;;13.70;68.20;;;;;;5059694;28;19935;-86
2022/09/25 08:44:18;;;;;;;;;;;13.80;68.20;;;;;;5057189;28;20417;-84
2022/09/25 08:49:46;;;;;;;;;;;13.80;68.20;;;;;;5072800;28;19984;-87
2022/09/25 08:52:14;;;;;;;;;;;13.80;68.20;;;;;;5056379;28;19920;-86
2022/09/25 08:54:39;;;;;;;;;;;13.90;68.30;;;;;;5041652;28;19951;-87
2022/09/25 08:57:23;;;;;;;;;;;13.90;68.20;;;;;;5034771;28;19952;-85
2022/09/25 08:59:51;;;;;;;;;;;14.00;68.30;;;;;;5052339;28;19912;-86
2022/09/25 09:02:19;;;;;;;;;;;14.00;68.20;;;;;;5037774;28;19921;-87
2022/09/25 09:04:50;;;;;;;;;;;14.10;68.20;;;;;;5038589;28;19916;-87
2022/09/25 09:07:33;;;;;;;;;;;14.10;68.20;;;;;;5071420;28;20111;-86
2022/09/25 09:10:06;;;;;;;;;;;14.10;68.10;;;;;;5073702;28;19917;-87
2022/09/25 09:12:42;;;;;;;;;;;14.20;68.10;;;;;;5053614;28;19942;-87
2022/09/25 09:15:11;;;;;;;;;;;14.20;68.10;;;;;;5056888;28;19963;-86
2022/09/25 09:17:40;;;;;;;;;;;14.30;68.10;;;;;;5055320;28;19920;-86
2022/09/25 09:20:13;;;;;;;;;;;14.30;68.00;;;;;;5071189;28;19912;-87
2022/09/25 09:22:41;;;;;;;;;;;14.40;68.00;;;;;;5070792;28;19931;-86
2022/09/25 09:25:23;;;;;;;;;;;14.50;68.00;;;;;;5069869;28;19921;-87
2022/09/25 09:27:55;;;;;;;;;;;14.50;68.00;;;;;;5070854;28;19912;-87
2022/09/25 09:30:32;;;;;;;;;;;14.60;68.00;;;;;;5052942;28;20042;-88
2022/09/25 09:33:07;;;;;;;;;;;14.60;68.00;;;;;;5059003;28;19912;-89
2022/09/25 09:35:38;;;;;;;;;;;14.70;67.90;;;;;;5074228;28;19921;-88
2022/09/25 09:38:10;;;;;;;;;;;14.80;67.90;;;;;;5054671;28;19958;-88
2022/09/25 09:40:55;;;;;;;;;;;14.80;67.80;;;;;;5067267;28;19913;-88
2022/09/25 09:43:30;;;;;;;;;;;14.90;67.80;;;;;;5067584;28;19924;-86
2022/09/25 09:46:09;;;;;;;;;;;15.00;67.80;;;;;;5056525;28;20369;-88
2022/09/25 09:48:39;;;;;;;;;;;15.10;67.90;;;;;;5052734;28;19985;-86
2022/09/25 09:51:08;;;;;;;;;;;15.20;67.90;;;;;;5056749;28;19944;-86
2022/09/25 09:53:42;;;;;;;;;;;15.30;68.00;;;;;;5054883;28;19913;-85
2022/09/25 09:56:20;;;;;;;;;;;15.30;67.90;;;;;;5055770;28;19912;-87
2022/09/25 09:58:45;;;;;;;;;;;15.40;67.90;;;;;;5068336;28;19912;-87
2022/09/25 10:01:12;;;;;;;;;;;15.50;67.80;;;;;;5066414;28;19923;-88
2022/09/25 10:03:39;;;;;;;;;;;15.60;67.80;;;;;;5038160;28;20422;-88
2022/09/25 10:06:09;;;;;;;;;;;15.70;67.80;;;;;;5051107;28;19924;-88
2022/09/25 10:08:35;;;;;;;;;;;15.80;67.80;;;;;;5068669;28;19920;-87
2022/09/25 10:11:04;;;;;;;;;;;15.90;67.90;;;;;;5061857;28;20356;-85
2022/09/25 10:13:31;;;;;;;;;;;16.00;67.80;;;;;;5047771;28;20487;-88
2022/09/25 10:16:00;;;;;;;;;;;16.10;67.90;;;;;;5079276;28;19916;-87
2022/09/25 10:18:30;;;;;;;;;;;16.10;67.80;;;;;;5059766;28;19923;-89
2022/09/25 10:20:58;;;;;;;;;;;16.20;67.80;;;;;;5054006;28;19943;-87
2022/09/25 10:23:24;;;;;;;;;;;16.30;67.80;;;;;;5050150;28;19928;-87
2022/09/25 10:25:49;;;;;;;;;;;16.40;67.80;;;;;;5050722;28;19912;-86
2022/09/25 10:28:24;;;;;;;;;;;16.50;67.80;;;;;;5052844;28;19966;-87
2022/09/25 10:30:51;;;;;;;;;;;16.60;67.90;;;;;;5054292;28;19920;-87
2022/09/25 10:33:21;;;;;;;;;;;16.70;67.90;;;;;;5057688;28;19919;-86
2022/09/25 10:35:47;;;;;;;;;;;16.80;67.80;;;;;;5061318;28;19916;-87
2022/09/25 10:38:32;;;;;;;;;;;16.90;67.90;;;;;;5053896;28;19912;-88
2022/09/25 10:41:00;;;;;;;;;;;17.00;67.90;;;;;;5056398;28;20426;-88
2022/09/25 10:43:25;;;;;;;;;;;17.10;68.00;;;;;;5055232;28;20395;-88
2022/09/25 10:46:03;;;;;;;;;;;17.10;67.90;;;;;;5048559;28;19916;-87
2022/09/25 10:51:16;;;;;;;;;;;17.30;68.20;;;;;;5068468;28;19913;-88
2022/09/25 10:53:50;;;;;;;;;;;17.40;68.00;;;;;;5053766;28;19967;-88
2022/09/25 10:56:19;;;;;;;;;;;17.50;68.10;;;;;;5059994;28;20011;-86
2022/09/25 10:58:45;;;;;;;;;;;17.50;68.10;;;;;;5053479;28;20009;-88
2022/09/25 11:01:12;;;;;;;;;;;17.60;68.10;;;;;;5072058;28;19916;-88
2022/09/25 11:03:49;;;;;;;;;;;17.60;68.10;;;;;;5059808;28;19927;-88
2022/09/25 11:06:23;;;;;;;;;;;17.70;68.30;;;;;;5061972;28;19921;-86
2022/09/25 11:09:01;;;;;;;;;;;17.80;68.40;;;;;;5071846;28;19912;-86
2022/09/25 11:11:27;;;;;;;;;;;17.80;68.40;;;;;;5054933;28;20406;-87
2022/09/25 11:13:55;;;;;;;;;;;17.90;68.40;;;;;;5056418;28;20011;-88
2022/09/25 11:16:40;;;;;;;;;;;17.90;68.40;;;;;;5077181;28;19912;-86
2022/09/25 11:19:27;;;;;;;;;;;17.90;68.30;;;;;;5073966;28;19923;-86
2022/09/25 11:21:56;;;;;;;;;;;18.00;68.40;;;;;;5039554;28;19935;-86
2022/09/25 11:24:28;;;;;;;;;;;18.00;68.40;;;;;;5055094;28;19927;-86
2022/09/25 11:27:02;;;;;;;;;;;18.10;68.40;;;;;;5077090;28;20035;-87
2022/09/25 11:29:29;;;;;;;;;;;18.10;68.30;;;;;;5082038;28;19970;-83
2022/09/25 11:32:09;;;;;;;;;;;18.10;68.20;;;;;;5066875;28;19908;-88
2022/09/25 11:34:47;;;;;;;;;;;18.20;68.30;;;;;;5072048;28;20001;-85
2022/09/25 11:37:12;;;;;;;;;;;18.20;68.20;;;;;;5049975;28;19962;-87
2022/09/25 11:42:47;;;;;;;;;;;18.20;68.30;;;;;;5059456;28;19916;-86
2022/09/25 11:45:29;;;;;;;;;;;18.20;68.20;;;;;;5080330;28;19916;-88
2022/09/25 11:48:17;;;;;;;;;;;18.20;68.10;;;;;;5070481;28;19934;-88
2022/09/25 11:50:49;;;;;;;;;;;18.30;68.10;;;;;;5084247;28;19966;-87
2022/09/25 11:53:44;;;;;;;;;;;18.30;68.00;;;;;;5055581;28;19912;-89
2022/09/25 11:56:28;;;;;;;;;;;18.30;68.00;;;;;;4998953;28;19913;-88
2022/09/25 11:58:57;;;;;;;;;;;18.40;68.00;;;;;;5058065;28;19912;-89
2022/09/25 12:01:45;;;;;;;;;;;18.40;68.00;;;;;;5076026;28;19917;-87
2022/09/25 12:04:30;;;;;;;;;;;18.40;68.00;;;;;;5078602;28;19913;-88
2022/09/25 12:06:58;;;;;;;;;;;18.40;67.90;;;;;;5071226;28;19916;-89
2022/09/25 12:09:27;;;;;;;;;;;18.40;67.80;;;;;;5067930;28;19916;-88
2022/09/25 12:12:11;;;;;;;;;;;18.40;68.50;;;;;;5085165;28;19920;-89
2022/09/25 12:14:44;;;;;;;;;;;18.50;67.80;;;;;;5068817;28;19981;-89
2022/09/25 12:17:16;;;;;;;;;;;18.50;67.80;;;;;;5062452;28;20415;-88
2022/09/25 12:20:09;;;;;;;;;;;18.50;67.70;;;;;;5082375;28;19927;-88
2022/09/25 12:22:42;;;;;;;;;;;18.50;67.70;;;;;;5054275;28;20411;-88
2022/09/25 12:25:26;;;;;;;;;;;18.50;67.70;;;;;;5072653;28;19977;-89
2022/09/25 12:28:02;;;;;;;;;;;18.50;67.70;;;;;;5045527;28;20014;-89
2022/09/25 12:30:35;;;;;;;;;;;18.60;67.70;;;;;;5089548;28;20246;-87
2022/09/25 12:33:17;;;;;;;;;;;18.60;67.70;;;;;;5065230;28;19921;-88
2022/09/25 12:35:43;;;;;;;;;;;18.60;67.70;;;;;;5063650;28;19947;-88
2022/09/25 12:38:32;;;;;;;;;;;18.60;67.70;;;;;;5076028;28;19944;-87
2022/09/25 12:41:10;;;;;;;;;;;18.60;67.70;;;;;;5072495;28;19912;-86
2022/09/25 12:43:40;;;;;;;;;;;18.60;67.70;;;;;;5092252;28;19931;-87
2022/09/25 12:46:08;;;;;;;;;;;18.60;67.60;;;;;;5069893;28;19951;-89
2022/09/25 12:48:34;;;;;;;;;;;18.60;67.60;;;;;;5070962;28;19930;-88
2022/09/25 12:51:12;;;;;;;;;;;18.60;67.60;;;;;;5086362;28;19913;-88
2022/09/25 12:53:37;;;;;;;;;;;18.70;67.70;;;;;;5068193;28;19913;-88
2022/09/25 12:56:40;;;;;;;;;;;18.70;67.70;;;;;;5085083;28;20261;-89
2022/09/25 12:59:12;;;;;;;;;;;18.70;67.60;;;;;;4973356;28;20394;-88
2022/09/25 13:01:47;;;;;;;;;;;18.70;67.60;;;;;;5071354;28;19923;-89
2022/09/25 13:04:22;;;;;;;;;;;18.70;67.60;;;;;;5072225;28;19939;-86
2022/09/25 13:06:47;;;;;;;;;;;18.70;67.60;;;;;;5047302;28;19923;-88
2022/09/25 13:09:23;;;;;;;;;;;18.70;67.60;;;;;;5067556;28;19909;-88
2022/09/25 13:12:02;;;;;;;;;;;18.70;67.60;;;;;;5077452;28;19918;-88
2022/09/25 13:14:27;;;;;;;;;;;18.70;67.50;;;;;;5059015;28;19923;-88
2022/09/25 13:16:53;;;;;;;;;;;18.70;67.50;;;;;;5080514;28;19999;-88
2022/09/25 13:19:24;;;;;;;;;;;18.70;67.50;;;;;;5063204;28;20060;-86
2022/09/25 13:21:50;;;;;;;;;;;18.70;67.50;;;;;;5061366;28;19920;-86
2022/09/25 13:24:16;;;;;;;;;;;18.70;67.40;;;;;;5062039;28;19923;-85
2022/09/25 13:26:44;;;;;;;;;;;18.70;67.40;;;;;;5062550;28;19919;-83
2022/09/25 13:29:26;;;;;;;;;;;18.80;68.10;;;;;;5058772;28;19916;-85
2022/09/25 13:32:01;;;;;;;;;;;18.80;67.40;;;;;;5065139;28;19963;-86
2022/09/25 13:34:27;;;;;;;;;;;18.70;67.30;;;;;;5082747;28;20434;-87
2022/09/25 13:36:54;;;;;;;;;;;18.80;67.30;;;;;;5049000;28;19917;-86
2022/09/25 13:42:22;;;;;;;;;;;18.80;67.30;;;;;;5056376;28;19920;-87
2022/09/25 13:45:07;;;;;;;;;;;18.80;67.30;;;;;;5070725;28;20387;-86
2022/09/25 13:47:37;;;;;;;;;;;18.80;67.20;;;;;;5079735;28;20386;-86
2022/09/25 13:50:14;;;;;;;;;;;18.80;67.20;;;;;;5072882;28;19948;-86
2022/09/25 13:52:40;;;;;;;;;;;18.80;67.20;;;;;;5069078;28;19916;-85
2022/09/25 13:55:11;;;;;;;;;;;18.80;67.10;;;;;;5067192;28;19908;-86
2022/09/25 13:57:57;;;;;;;;;;;18.90;67.10;;;;;;5043703;28;19950;-87
2022/09/25 14:00:43;;;;;;;;;;;18.90;67.00;;;;;;5081642;28;19955;-87
2022/09/25 14:03:29;;;;;;;;;;;18.90;67.00;;;;;;5047943;28;20101;-89
2022/09/25 14:05:54;;;;;;;;;;;18.90;66.90;;;;;;5077708;28;19919;-87
2022/09/25 14:08:20;;;;;;;;;;;18.90;66.80;;;;;;5052959;28;19912;-86
2022/09/25 14:10:48;;;;;;;;;;;19.00;66.80;;;;;;5061009;28;19966;-89
2022/09/25 14:13:14;;;;;;;;;;;18.90;66.70;;;;;;5081193;28;19986;-92
2022/09/25 14:15:41;;;;;;;;;;;19.00;66.70;;;;;;5067652;28;20397;-90
2022/09/25 14:18:13;;;;;;;;;;;19.00;66.70;;;;;;5066631;28;19919;-90
2022/09/25 14:20:41;;;;;;;;;;;19.00;66.60;;;;;;5042123;28;19912;-92
2022/09/25 14:23:11;;;;;;;;;;;19.00;66.60;;;;;;5043910;28;20043;-88
2022/09/25 14:25:41;;;;;;;;;;;19.10;66.60;;;;;;5048496;28;19913;-89
2022/09/25 14:28:17;;;;;;;;;;;19.10;66.50;;;;;;5035568;28;19917;-90
2022/09/25 14:30:56;;;;;;;;;;;19.10;66.40;;;;;;5038051;28;21181;-91
2022/09/25 14:33:35;;;;;;;;;;;19.10;66.30;;;;;;5044572;28;19951;-92
2022/09/25 14:36:21;;;;;;;;;;;19.20;66.20;;;;;;5029961;28;19921;-92
2022/09/25 14:38:53;;;;;;;;;;;19.20;66.20;;;;;;5038833;28;19913;-90
2022/09/25 14:41:20;;;;;;;;;;;19.20;66.10;;;;;;5040669;28;19921;-90
2022/09/25 14:44:05;;;;;;;;;;;19.20;66.10;;;;;;5025611;28;19916;-87
2022/09/25 14:46:31;;;;;;;;;;;19.20;66.10;;;;;;5039086;28;19952;-87
2022/09/25 14:49:08;;;;;;;;;;;19.30;66.10;;;;;;5038528;28;19972;-93